sensor_id;sensor_type;location;lat;lon;timestamp;temperature;humidity
1700;DHT22;847;48.058;7.810;2022-11-20T00:00:31;8.90;99.00
1700;DHT22;847;48.058;7.810;2022-11-20T00:02:58;8.90;99.00
1700;DHT22;847;48.058;7.810;2022-11-20T00:05:26;9.00;99.00
1700;DHT22;847;48.058;7.810;2022-11-20T00:07:53;9.00;99.00
1700;DHT22;847;48.058;7.810;2022-11-20T00:10:21;8.90;99.00
1700;DHT22;847;48.058;7.810;2022-11-20T00:12:49;8.90;99.00
1700;DHT22;847;48.058;7.810;2022-11-20T00:15:18;8.90;99.00
1700;DHT22;847;48.058;7.810;2022-11-20T00:17:45;8.90;99.00
1700;DHT22;847;48.058;7.810;2022-11-20T00:20:14;8.90;99.00
1700;DHT22;847;48.058;7.810;2022-11-20T00:22:43;8.90;99.00
1700;DHT22;847;48.058;7.810;2022-11-20T00:25:12;8.90;99.00
1700;DHT22;847;48.058;7.810;2022-11-20T00:27:41;8.90;99.00
1700;DHT22;847;48.058;7.810;2022-11-20T00:30:09;8.80;99.00
1700;DHT22;847;48.058;7.810;2022-11-20T00:32:45;8.80;99.00
1700;DHT22;847;48.058;7.810;2022-11-20T00:35:16;8.80;99.00
1700;DHT22;847;48.058;7.810;2022-11-20T00:37:46;8.90;99.00
1700;DHT22;847;48.058;7.810;2022-11-20T00:42:50;8.80;99.00
1700;DHT22;847;48.058;7.810;2022-11-20T00:45:16;8.80;99.00
1700;DHT22;847;48.058;7.810;2022-11-20T00:47:55;8.80;99.00
1700;DHT22;847;48.058;7.810;2022-11-20T00:50:24;8.80;99.00
1700;DHT22;847;48.058;7.810;2022-11-20T00:53:04;8.80;99.00
1700;DHT22;847;48.058;7.810;2022-11-20T00:55:31;8.80;99.00
1700;DHT22;847;48.058;7.810;2022-11-20T00:57:58;8.80;99.00
1700;DHT22;847;48.058;7.810;2022-11-20T01:00:24;8.80;99.00
1700;DHT22;847;48.058;7.810;2022-11-20T01:02:55;8.70;99.00
1700;DHT22;847;48.058;7.810;2022-11-20T01:05:21;8.70;99.00
1700;DHT22;847;48.058;7.810;2022-11-20T01:07:48;8.70;99.00
1700;DHT22;847;48.058;7.810;2022-11-20T01:10:15;8.70;99.00
1700;DHT22;847;48.058;7.810;2022-11-20T01:12:42;8.70;99.00
1700;DHT22;847;48.058;7.810;2022-11-20T01:15:29;8.70;99.00
1700;DHT22;847;48.058;7.810;2022-11-20T01:17:57;8.70;99.00
1700;DHT22;847;48.058;7.810;2022-11-20T01:20:24;8.60;99.00
1700;DHT22;847;48.058;7.810;2022-11-20T01:22:51;8.70;99.00
1700;DHT22;847;48.058;7.810;2022-11-20T01:25:21;8.60;99.00
1700;DHT22;847;48.058;7.810;2022-11-20T01:27:53;8.60;99.00
1700;DHT22;847;48.058;7.810;2022-11-20T01:30:20;8.60;99.00
1700;DHT22;847;48.058;7.810;2022-11-20T01:32:48;8.60;99.00
1700;DHT22;847;48.058;7.810;2022-11-20T01:35:18;8.60;99.00
1700;DHT22;847;48.058;7.810;2022-11-20T01:37:45;8.60;99.00
1700;DHT22;847;48.058;7.810;2022-11-20T01:40:14;8.60;99.00
1700;DHT22;847;48.058;7.810;2022-11-20T01:42:47;8.50;99.00
1700;DHT22;847;48.058;7.810;2022-11-20T01:46:01;8.60;99.00
1700;DHT22;847;48.058;7.810;2022-11-20T01:48:34;8.60;99.00
1700;DHT22;847;48.058;7.810;2022-11-20T01:51:15;8.60;99.00
1700;DHT22;847;48.058;7.810;2022-11-20T01:54:06;8.60;99.00
1700;DHT22;847;48.058;7.810;2022-11-20T01:56:36;8.60;99.00
1700;DHT22;847;48.058;7.810;2022-11-20T01:59:07;8.50;99.00
1700;DHT22;847;48.058;7.810;2022-11-20T02:01:35;8.60;99.00
1700;DHT22;847;48.058;7.810;2022-11-20T02:04:03;8.50;99.00
1700;DHT22;847;48.058;7.810;2022-11-20T02:06:35;8.60;99.00
1700;DHT22;847;48.058;7.810;2022-11-20T02:09:04;8.50;99.00
1700;DHT22;847;48.058;7.810;2022-11-20T02:11:33;8.50;99.00
1700;DHT22;847;48.058;7.810;2022-11-20T02:14:06;8.40;99.00
1700;DHT22;847;48.058;7.810;2022-11-20T02:16:36;8.40;99.00
1700;DHT22;847;48.058;7.810;2022-11-20T02:19:23;8.40;99.00
1700;DHT22;847;48.058;7.810;2022-11-20T02:22:00;8.40;99.00
1700;DHT22;847;48.058;7.810;2022-11-20T02:24:32;8.40;99.00
1700;DHT22;847;48.058;7.810;2022-11-20T02:27:05;8.50;99.00
1700;DHT22;847;48.058;7.810;2022-11-20T02:29:42;8.50;99.00
1700;DHT22;847;48.058;7.810;2022-11-20T02:32:19;8.50;99.00
1700;DHT22;847;48.058;7.810;2022-11-20T02:34:49;8.50;99.00
1700;DHT22;847;48.058;7.810;2022-11-20T02:37:17;8.50;99.00
1700;DHT22;847;48.058;7.810;2022-11-20T02:39:47;8.50;99.00
1700;DHT22;847;48.058;7.810;2022-11-20T02:42:15;8.50;99.00
1700;DHT22;847;48.058;7.810;2022-11-20T02:44:42;8.40;99.00
1700;DHT22;847;48.058;7.810;2022-11-20T02:47:09;8.40;99.00
1700;DHT22;847;48.058;7.810;2022-11-20T02:49:35;8.40;99.00
1700;DHT22;847;48.058;7.810;2022-11-20T02:52:02;8.50;99.00
1700;DHT22;847;48.058;7.810;2022-11-20T02:54:29;8.50;99.00
1700;DHT22;847;48.058;7.810;2022-11-20T02:56:58;8.50;99.00
1700;DHT22;847;48.058;7.810;2022-11-20T02:59:24;8.50;99.00
1700;DHT22;847;48.058;7.810;2022-11-20T03:01:51;8.50;99.00
1700;DHT22;847;48.058;7.810;2022-11-20T03:04:18;8.40;99.00
1700;DHT22;847;48.058;7.810;2022-11-20T03:06:46;8.40;99.00
1700;DHT22;847;48.058;7.810;2022-11-20T03:09:15;8.30;99.00
1700;DHT22;847;48.058;7.810;2022-11-20T03:11:42;8.30;99.00
1700;DHT22;847;48.058;7.810;2022-11-20T03:14:11;8.40;99.00
1700;DHT22;847;48.058;7.810;2022-11-20T03:16:39;8.40;99.00
1700;DHT22;847;48.058;7.810;2022-11-20T03:19:06;8.40;99.00
1700;DHT22;847;48.058;7.810;2022-11-20T03:21:34;8.30;99.00
1700;DHT22;847;48.058;7.810;2022-11-20T03:24:01;8.30;99.00
1700;DHT22;847;48.058;7.810;2022-11-20T03:26:28;8.40;99.00
1700;DHT22;847;48.058;7.810;2022-11-20T03:28:56;8.40;99.00
1700;DHT22;847;48.058;7.810;2022-11-20T03:31:27;8.40;99.00
1700;DHT22;847;48.058;7.810;2022-11-20T03:33:55;8.40;99.00
1700;DHT22;847;48.058;7.810;2022-11-20T03:36:22;8.30;99.00
1700;DHT22;847;48.058;7.810;2022-11-20T03:38:49;8.30;99.00
1700;DHT22;847;48.058;7.810;2022-11-20T03:41:17;8.30;99.00
1700;DHT22;847;48.058;7.810;2022-11-20T03:43:47;8.20;99.00
1700;DHT22;847;48.058;7.810;2022-11-20T03:46:14;8.20;99.00
1700;DHT22;847;48.058;7.810;2022-11-20T03:48:43;8.20;99.00
1700;DHT22;847;48.058;7.810;2022-11-20T03:51:11;8.20;99.00
1700;DHT22;847;48.058;7.810;2022-11-20T03:53:38;8.30;99.00
1700;DHT22;847;48.058;7.810;2022-11-20T03:56:06;8.30;99.00
1700;DHT22;847;48.058;7.810;2022-11-20T03:58:33;8.30;99.00
1700;DHT22;847;48.058;7.810;2022-11-20T04:01:04;8.20;99.00
1700;DHT22;847;48.058;7.810;2022-11-20T04:03:31;8.30;99.00
1700;DHT22;847;48.058;7.810;2022-11-20T04:06:04;8.30;99.00
1700;DHT22;847;48.058;7.810;2022-11-20T04:08:46;8.30;99.00
1700;DHT22;847;48.058;7.810;2022-11-20T04:11:16;8.30;99.00
1700;DHT22;847;48.058;7.810;2022-11-20T04:13:47;8.30;99.00
1700;DHT22;847;48.058;7.810;2022-11-20T04:16:17;8.30;99.00
1700;DHT22;847;48.058;7.810;2022-11-20T04:18:51;8.30;99.00
1700;DHT22;847;48.058;7.810;2022-11-20T04:21:26;8.30;99.00
1700;DHT22;847;48.058;7.810;2022-11-20T04:23:57;8.40;99.00
1700;DHT22;847;48.058;7.810;2022-11-20T04:26:26;8.30;99.00
1700;DHT22;847;48.058;7.810;2022-11-20T04:28:53;8.30;99.00
1700;DHT22;847;48.058;7.810;2022-11-20T04:31:23;8.30;99.00
1700;DHT22;847;48.058;7.810;2022-11-20T04:33:50;8.30;99.00
1700;DHT22;847;48.058;7.810;2022-11-20T04:36:19;8.20;99.00
1700;DHT22;847;48.058;7.810;2022-11-20T04:38:52;8.20;99.00
1700;DHT22;847;48.058;7.810;2022-11-20T04:41:20;8.20;99.00
1700;DHT22;847;48.058;7.810;2022-11-20T04:43:48;8.20;99.00
1700;DHT22;847;48.058;7.810;2022-11-20T04:46:16;8.30;99.00
1700;DHT22;847;48.058;7.810;2022-11-20T04:48:44;8.20;99.00
1700;DHT22;847;48.058;7.810;2022-11-20T04:51:12;8.20;99.00
1700;DHT22;847;48.058;7.810;2022-11-20T04:53:39;8.20;99.00
1700;DHT22;847;48.058;7.810;2022-11-20T04:56:09;8.20;99.00
1700;DHT22;847;48.058;7.810;2022-11-20T04:58:40;8.20;99.00
1700;DHT22;847;48.058;7.810;2022-11-20T05:01:11;8.20;99.00
1700;DHT22;847;48.058;7.810;2022-11-20T05:03:43;8.10;99.00
1700;DHT22;847;48.058;7.810;2022-11-20T05:06:13;8.10;99.00
1700;DHT22;847;48.058;7.810;2022-11-20T05:08:48;8.10;99.00
1700;DHT22;847;48.058;7.810;2022-11-20T05:11:22;8.10;99.00
1700;DHT22;847;48.058;7.810;2022-11-20T05:13:54;8.10;99.00
1700;DHT22;847;48.058;7.810;2022-11-20T05:16:23;8.10;99.00
1700;DHT22;847;48.058;7.810;2022-11-20T05:18:52;8.10;99.00
1700;DHT22;847;48.058;7.810;2022-11-20T05:21:22;8.10;99.00
1700;DHT22;847;48.058;7.810;2022-11-20T05:23:49;8.10;99.00
1700;DHT22;847;48.058;7.810;2022-11-20T05:26:18;8.00;99.00
1700;DHT22;847;48.058;7.810;2022-11-20T05:28:49;8.00;99.00
1700;DHT22;847;48.058;7.810;2022-11-20T05:31:19;8.00;99.00
1700;DHT22;847;48.058;7.810;2022-11-20T05:33:47;8.00;99.00
1700;DHT22;847;48.058;7.810;2022-11-20T05:36:17;8.00;99.00
1700;DHT22;847;48.058;7.810;2022-11-20T05:38:44;8.10;99.00
1700;DHT22;847;48.058;7.810;2022-11-20T05:41:13;8.10;99.00
1700;DHT22;847;48.058;7.810;2022-11-20T05:43:42;8.10;99.00
1700;DHT22;847;48.058;7.810;2022-11-20T05:46:16;8.20;99.00
1700;DHT22;847;48.058;7.810;2022-11-20T05:48:49;8.10;99.00
1700;DHT22;847;48.058;7.810;2022-11-20T05:51:18;8.10;99.00
1700;DHT22;847;48.058;7.810;2022-11-20T05:53:46;8.10;99.00
1700;DHT22;847;48.058;7.810;2022-11-20T05:56:15;8.10;99.00
1700;DHT22;847;48.058;7.810;2022-11-20T05:58:44;8.10;99.00
1700;DHT22;847;48.058;7.810;2022-11-20T06:01:23;8.20;99.00
1700;DHT22;847;48.058;7.810;2022-11-20T06:03:54;8.20;99.00
1700;DHT22;847;48.058;7.810;2022-11-20T06:06:22;8.20;99.00
1700;DHT22;847;48.058;7.810;2022-11-20T06:08:50;8.20;99.00
1700;DHT22;847;48.058;7.810;2022-11-20T06:11:18;8.20;99.00
1700;DHT22;847;48.058;7.810;2022-11-20T06:13:47;8.20;99.00
1700;DHT22;847;48.058;7.810;2022-11-20T06:16:17;8.20;99.00
1700;DHT22;847;48.058;7.810;2022-11-20T06:18:45;8.20;99.00
1700;DHT22;847;48.058;7.810;2022-11-20T06:21:15;8.20;99.00
1700;DHT22;847;48.058;7.810;2022-11-20T06:23:43;8.10;99.00
1700;DHT22;847;48.058;7.810;2022-11-20T06:26:11;8.10;99.00
1700;DHT22;847;48.058;7.810;2022-11-20T06:28:39;8.10;99.00
1700;DHT22;847;48.058;7.810;2022-11-20T06:31:09;8.10;99.00
1700;DHT22;847;48.058;7.810;2022-11-20T06:33:39;8.10;99.00
1700;DHT22;847;48.058;7.810;2022-11-20T06:36:07;8.20;99.00
1700;DHT22;847;48.058;7.810;2022-11-20T06:38:34;8.10;99.00
1700;DHT22;847;48.058;7.810;2022-11-20T06:41:03;8.10;99.00
1700;DHT22;847;48.058;7.810;2022-11-20T06:43:30;8.10;99.00
1700;DHT22;847;48.058;7.810;2022-11-20T06:45:58;8.10;99.00
1700;DHT22;847;48.058;7.810;2022-11-20T06:48:27;8.10;99.00
1700;DHT22;847;48.058;7.810;2022-11-20T06:50:59;8.10;99.00
1700;DHT22;847;48.058;7.810;2022-11-20T06:53:26;8.10;99.00
1700;DHT22;847;48.058;7.810;2022-11-20T06:55:55;8.10;99.00
1700;DHT22;847;48.058;7.810;2022-11-20T06:58:28;8.10;99.00
1700;DHT22;847;48.058;7.810;2022-11-20T07:00:58;8.10;99.00
1700;DHT22;847;48.058;7.810;2022-11-20T07:03:27;8.00;99.00
1700;DHT22;847;48.058;7.810;2022-11-20T07:05:57;8.10;99.00
1700;DHT22;847;48.058;7.810;2022-11-20T07:08:25;8.10;99.00
1700;DHT22;847;48.058;7.810;2022-11-20T07:10:52;8.10;99.00
1700;DHT22;847;48.058;7.810;2022-11-20T07:13:19;8.10;99.00
1700;DHT22;847;48.058;7.810;2022-11-20T07:15:46;8.10;99.00
1700;DHT22;847;48.058;7.810;2022-11-20T07:18:13;8.10;99.00
1700;DHT22;847;48.058;7.810;2022-11-20T07:20:40;8.10;99.00
1700;DHT22;847;48.058;7.810;2022-11-20T07:23:08;8.10;99.00
1700;DHT22;847;48.058;7.810;2022-11-20T07:25:36;8.10;99.00
1700;DHT22;847;48.058;7.810;2022-11-20T07:28:03;8.10;99.00
1700;DHT22;847;48.058;7.810;2022-11-20T07:30:30;8.10;99.00
1700;DHT22;847;48.058;7.810;2022-11-20T07:32:58;8.20;99.00
1700;DHT22;847;48.058;7.810;2022-11-20T07:35:26;8.20;99.00
1700;DHT22;847;48.058;7.810;2022-11-20T07:37:53;8.20;99.00
1700;DHT22;847;48.058;7.810;2022-11-20T07:40:21;8.30;99.00
1700;DHT22;847;48.058;7.810;2022-11-20T07:42:49;8.20;99.00
1700;DHT22;847;48.058;7.810;2022-11-20T07:45:20;8.20;99.00
1700;DHT22;847;48.058;7.810;2022-11-20T07:47:52;8.20;99.00
1700;DHT22;847;48.058;7.810;2022-11-20T07:50:23;8.30;99.00
1700;DHT22;847;48.058;7.810;2022-11-20T07:52:52;8.20;99.00
1700;DHT22;847;48.058;7.810;2022-11-20T07:55:20;8.30;99.00
1700;DHT22;847;48.058;7.810;2022-11-20T07:57:54;8.30;99.00
1700;DHT22;847;48.058;7.810;2022-11-20T08:00:21;8.30;99.00
1700;DHT22;847;48.058;7.810;2022-11-20T08:02:49;8.30;99.00
1700;DHT22;847;48.058;7.810;2022-11-20T08:05:16;8.30;99.00
1700;DHT22;847;48.058;7.810;2022-11-20T08:07:43;8.30;99.00
1700;DHT22;847;48.058;7.810;2022-11-20T08:10:13;8.30;99.00
1700;DHT22;847;48.058;7.810;2022-11-20T08:12:47;8.30;99.00
1700;DHT22;847;48.058;7.810;2022-11-20T08:15:37;8.30;99.00
1700;DHT22;847;48.058;7.810;2022-11-20T08:18:09;8.30;99.00
1700;DHT22;847;48.058;7.810;2022-11-20T08:20:38;8.30;99.00
1700;DHT22;847;48.058;7.810;2022-11-20T08:23:07;8.30;99.00
1700;DHT22;847;48.058;7.810;2022-11-20T08:25:37;8.30;99.00
1700;DHT22;847;48.058;7.810;2022-11-20T08:28:10;8.30;99.00
1700;DHT22;847;48.058;7.810;2022-11-20T08:30:37;8.30;99.00
1700;DHT22;847;48.058;7.810;2022-11-20T08:33:06;8.30;99.00
1700;DHT22;847;48.058;7.810;2022-11-20T08:35:34;8.30;99.00
1700;DHT22;847;48.058;7.810;2022-11-20T08:38:04;8.30;99.00
1700;DHT22;847;48.058;7.810;2022-11-20T08:40:32;8.30;99.00
1700;DHT22;847;48.058;7.810;2022-11-20T08:43:00;8.30;99.00
1700;DHT22;847;48.058;7.810;2022-11-20T08:45:29;8.30;99.00
1700;DHT22;847;48.058;7.810;2022-11-20T08:48:00;8.30;99.00
1700;DHT22;847;48.058;7.810;2022-11-20T08:50:27;8.30;99.00
1700;DHT22;847;48.058;7.810;2022-11-20T08:53:02;8.30;99.00
1700;DHT22;847;48.058;7.810;2022-11-20T08:55:30;8.30;99.00
1700;DHT22;847;48.058;7.810;2022-11-20T08:57:57;8.30;99.00
1700;DHT22;847;48.058;7.810;2022-11-20T09:00:24;8.30;99.00
1700;DHT22;847;48.058;7.810;2022-11-20T09:02:53;8.30;99.00
1700;DHT22;847;48.058;7.810;2022-11-20T09:05:20;8.30;99.00
1700;DHT22;847;48.058;7.810;2022-11-20T09:07:49;8.40;99.00
1700;DHT22;847;48.058;7.810;2022-11-20T09:10:17;8.40;99.00
1700;DHT22;847;48.058;7.810;2022-11-20T09:12:49;8.40;99.00
1700;DHT22;847;48.058;7.810;2022-11-20T09:15:17;8.40;99.00
1700;DHT22;847;48.058;7.810;2022-11-20T09:17:51;8.40;99.00
1700;DHT22;847;48.058;7.810;2022-11-20T09:20:20;8.40;99.00
1700;DHT22;847;48.058;7.810;2022-11-20T09:22:47;8.40;99.00
1700;DHT22;847;48.058;7.810;2022-11-20T09:25:15;8.40;99.00
1700;DHT22;847;48.058;7.810;2022-11-20T09:27:43;8.40;99.00
1700;DHT22;847;48.058;7.810;2022-11-20T09:30:13;8.40;99.00
1700;DHT22;847;48.058;7.810;2022-11-20T09:32:41;8.40;99.00
1700;DHT22;847;48.058;7.810;2022-11-20T09:35:11;8.40;99.00
1700;DHT22;847;48.058;7.810;2022-11-20T09:37:42;8.40;99.00
1700;DHT22;847;48.058;7.810;2022-11-20T09:40:19;8.50;99.00
1700;DHT22;847;48.058;7.810;2022-11-20T09:42:50;8.50;99.00
1700;DHT22;847;48.058;7.810;2022-11-20T09:45:24;8.50;99.00
1700;DHT22;847;48.058;7.810;2022-11-20T09:48:19;8.50;99.00
1700;DHT22;847;48.058;7.810;2022-11-20T09:50:51;8.50;99.00
1700;DHT22;847;48.058;7.810;2022-11-20T09:53:30;8.60;99.00
1700;DHT22;847;48.058;7.810;2022-11-20T09:56:01;8.60;99.00
1700;DHT22;847;48.058;7.810;2022-11-20T09:58:33;8.60;99.00
1700;DHT22;847;48.058;7.810;2022-11-20T10:01:09;8.60;99.00
1700;DHT22;847;48.058;7.810;2022-11-20T10:03:42;8.60;99.00
1700;DHT22;847;48.058;7.810;2022-11-20T10:06:16;8.70;99.00
1700;DHT22;847;48.058;7.810;2022-11-20T10:08:50;8.70;99.00
1700;DHT22;847;48.058;7.810;2022-11-20T10:11:28;8.70;99.00
1700;DHT22;847;48.058;7.810;2022-11-20T10:14:04;8.70;99.00
1700;DHT22;847;48.058;7.810;2022-11-20T10:16:38;8.80;99.00
1700;DHT22;847;48.058;7.810;2022-11-20T10:19:20;8.80;99.00
1700;DHT22;847;48.058;7.810;2022-11-20T10:21:55;8.80;99.00
1700;DHT22;847;48.058;7.810;2022-11-20T10:24:44;8.80;99.00
1700;DHT22;847;48.058;7.810;2022-11-20T10:27:45;8.80;99.00
1700;DHT22;847;48.058;7.810;2022-11-20T10:30:17;8.90;99.00
1700;DHT22;847;48.058;7.810;2022-11-20T10:32:50;8.90;99.00
1700;DHT22;847;48.058;7.810;2022-11-20T10:35:22;8.90;99.00
1700;DHT22;847;48.058;7.810;2022-11-20T10:37:55;8.90;99.00
1700;DHT22;847;48.058;7.810;2022-11-20T10:40:31;8.90;99.00
1700;DHT22;847;48.058;7.810;2022-11-20T10:43:02;8.90;99.00
1700;DHT22;847;48.058;7.810;2022-11-20T10:45:42;8.90;99.00
1700;DHT22;847;48.058;7.810;2022-11-20T10:48:16;9.00;99.00
1700;DHT22;847;48.058;7.810;2022-11-20T10:50:56;9.00;99.00
1700;DHT22;847;48.058;7.810;2022-11-20T10:56:24;9.10;99.00
1700;DHT22;847;48.058;7.810;2022-11-20T10:59:05;9.10;99.00
1700;DHT22;847;48.058;7.810;2022-11-20T11:01:40;9.10;99.00
1700;DHT22;847;48.058;7.810;2022-11-20T11:04:26;9.10;99.00
1700;DHT22;847;48.058;7.810;2022-11-20T11:07:04;9.10;99.00
1700;DHT22;847;48.058;7.810;2022-11-20T11:09:34;9.20;99.00
1700;DHT22;847;48.058;7.810;2022-11-20T11:12:07;9.20;99.00
1700;DHT22;847;48.058;7.810;2022-11-20T11:14:43;9.30;99.00
1700;DHT22;847;48.058;7.810;2022-11-20T11:17:23;9.30;99.00
1700;DHT22;847;48.058;7.810;2022-11-20T11:20:04;9.40;99.00
1700;DHT22;847;48.058;7.810;2022-11-20T11:22:34;9.40;99.00
1700;DHT22;847;48.058;7.810;2022-11-20T11:25:02;9.50;99.00
1700;DHT22;847;48.058;7.810;2022-11-20T11:27:30;9.50;99.00
1700;DHT22;847;48.058;7.810;2022-11-20T11:30:10;9.50;99.00
1700;DHT22;847;48.058;7.810;2022-11-20T11:32:38;9.50;99.00
1700;DHT22;847;48.058;7.810;2022-11-20T11:35:06;9.80;99.00
1700;DHT22;847;48.058;7.810;2022-11-20T11:37:39;10.50;99.00
1700;DHT22;847;48.058;7.810;2022-11-20T11:40:08;11.20;97.70
1700;DHT22;847;48.058;7.810;2022-11-20T11:42:42;11.70;94.10
1700;DHT22;847;48.058;7.810;2022-11-20T11:45:14;12.30;92.10
1700;DHT22;847;48.058;7.810;2022-11-20T11:47:45;12.70;88.70
1700;DHT22;847;48.058;7.810;2022-11-20T11:50:18;12.90;88.70
1700;DHT22;847;48.058;7.810;2022-11-20T11:52:50;13.10;87.50
1700;DHT22;847;48.058;7.810;2022-11-20T11:55:26;13.40;85.90
1700;DHT22;847;48.058;7.810;2022-11-20T11:58:00;13.50;84.20
1700;DHT22;847;48.058;7.810;2022-11-20T12:00:29;13.70;83.00
1700;DHT22;847;48.058;7.810;2022-11-20T12:03:00;13.90;83.00
1700;DHT22;847;48.058;7.810;2022-11-20T12:05:35;13.80;82.60
1700;DHT22;847;48.058;7.810;2022-11-20T12:08:06;13.70;82.90
1700;DHT22;847;48.058;7.810;2022-11-20T12:10:45;13.60;82.60
1700;DHT22;847;48.058;7.810;2022-11-20T12:13:22;13.60;83.40
1700;DHT22;847;48.058;7.810;2022-11-20T12:15:56;13.40;83.10
1700;DHT22;847;48.058;7.810;2022-11-20T12:18:23;13.40;83.00
1700;DHT22;847;48.058;7.810;2022-11-20T12:21:00;13.40;83.60
1700;DHT22;847;48.058;7.810;2022-11-20T12:23:37;13.20;80.90
1700;DHT22;847;48.058;7.810;2022-11-20T12:26:10;13.40;82.70
1700;DHT22;847;48.058;7.810;2022-11-20T12:28:52;13.80;81.90
1700;DHT22;847;48.058;7.810;2022-11-20T12:31:34;13.90;80.40
1700;DHT22;847;48.058;7.810;2022-11-20T12:34:13;13.90;80.00
1700;DHT22;847;48.058;7.810;2022-11-20T12:36:49;13.80;79.70
1700;DHT22;847;48.058;7.810;2022-11-20T12:39:33;13.80;80.10
1700;DHT22;847;48.058;7.810;2022-11-20T12:42:20;13.90;79.80
1700;DHT22;847;48.058;7.810;2022-11-20T12:48:38;13.70;79.80
1700;DHT22;847;48.058;7.810;2022-11-20T12:54:15;13.60;80.30
1700;DHT22;847;48.058;7.810;2022-11-20T12:56:52;13.70;80.80
1700;DHT22;847;48.058;7.810;2022-11-20T12:59:31;13.80;80.70
1700;DHT22;847;48.058;7.810;2022-11-20T13:02:19;13.70;80.40
1700;DHT22;847;48.058;7.810;2022-11-20T13:05:01;13.70;80.40
1700;DHT22;847;48.058;7.810;2022-11-20T13:07:30;13.70;79.80
1700;DHT22;847;48.058;7.810;2022-11-20T13:10:00;13.60;80.40
1700;DHT22;847;48.058;7.810;2022-11-20T13:12:31;13.60;80.60
1700;DHT22;847;48.058;7.810;2022-11-20T13:15:07;13.50;80.70
1700;DHT22;847;48.058;7.810;2022-11-20T13:17:45;13.60;80.20
1700;DHT22;847;48.058;7.810;2022-11-20T13:20:15;13.30;80.90
1700;DHT22;847;48.058;7.810;2022-11-20T13:22:44;13.20;80.80
1700;DHT22;847;48.058;7.810;2022-11-20T13:25:22;13.20;80.70
1700;DHT22;847;48.058;7.810;2022-11-20T13:27:50;13.10;80.70
1700;DHT22;847;48.058;7.810;2022-11-20T13:30:20;13.00;80.50
1700;DHT22;847;48.058;7.810;2022-11-20T13:32:53;12.90;81.10
1700;DHT22;847;48.058;7.810;2022-11-20T13:35:31;12.90;80.80
1700;DHT22;847;48.058;7.810;2022-11-20T13:38:16;12.70;80.40
1700;DHT22;847;48.058;7.810;2022-11-20T13:40:51;12.90;80.00
1700;DHT22;847;48.058;7.810;2022-11-20T13:43:22;12.60;80.00
1700;DHT22;847;48.058;7.810;2022-11-20T13:46:01;12.60;80.50
1700;DHT22;847;48.058;7.810;2022-11-20T13:48:32;12.30;81.40
1700;DHT22;847;48.058;7.810;2022-11-20T13:51:15;12.40;81.70
1700;DHT22;847;48.058;7.810;2022-11-20T13:54:19;12.30;81.90
1700;DHT22;847;48.058;7.810;2022-11-20T13:57:01;12.40;82.60
1700;DHT22;847;48.058;7.810;2022-11-20T13:59:42;12.60;82.70
1700;DHT22;847;48.058;7.810;2022-11-20T14:02:14;12.60;82.60
1700;DHT22;847;48.058;7.810;2022-11-20T14:04:45;12.60;82.10
1700;DHT22;847;48.058;7.810;2022-11-20T14:07:13;12.50;82.80
1700;DHT22;847;48.058;7.810;2022-11-20T14:09:49;12.40;83.10
1700;DHT22;847;48.058;7.810;2022-11-20T14:12:19;12.40;83.20
1700;DHT22;847;48.058;7.810;2022-11-20T14:14:49;12.40;82.90
1700;DHT22;847;48.058;7.810;2022-11-20T14:17:20;12.30;83.10
1700;DHT22;847;48.058;7.810;2022-11-20T14:19:50;12.30;83.20
1700;DHT22;847;48.058;7.810;2022-11-20T14:22:20;12.10;82.90
1700;DHT22;847;48.058;7.810;2022-11-20T14:24:48;12.10;82.50
1700;DHT22;847;48.058;7.810;2022-11-20T14:27:18;12.10;83.10
1700;DHT22;847;48.058;7.810;2022-11-20T14:29:47;12.00;82.80
1700;DHT22;847;48.058;7.810;2022-11-20T14:32:17;11.90;82.70
1700;DHT22;847;48.058;7.810;2022-11-20T14:34:46;11.90;82.70
1700;DHT22;847;48.058;7.810;2022-11-20T14:37:19;11.80;83.70
1700;DHT22;847;48.058;7.810;2022-11-20T14:39:50;11.80;83.60
1700;DHT22;847;48.058;7.810;2022-11-20T14:42:20;11.70;84.00
1700;DHT22;847;48.058;7.810;2022-11-20T14:44:48;11.80;84.00
1700;DHT22;847;48.058;7.810;2022-11-20T14:47:20;11.70;83.80
1700;DHT22;847;48.058;7.810;2022-11-20T14:49:50;11.70;84.30
1700;DHT22;847;48.058;7.810;2022-11-20T14:52:20;11.70;84.60
1700;DHT22;847;48.058;7.810;2022-11-20T14:54:49;11.50;84.90
1700;DHT22;847;48.058;7.810;2022-11-20T14:57:25;11.40;85.20
1700;DHT22;847;48.058;7.810;2022-11-20T15:00:07;11.40;85.50
1700;DHT22;847;48.058;7.810;2022-11-20T15:02:34;11.20;86.00
1700;DHT22;847;48.058;7.810;2022-11-20T15:05:02;11.20;86.40
1700;DHT22;847;48.058;7.810;2022-11-20T15:07:32;11.20;86.60
1700;DHT22;847;48.058;7.810;2022-11-20T15:10:04;11.20;86.60
1700;DHT22;847;48.058;7.810;2022-11-20T15:12:32;11.20;86.70
1700;DHT22;847;48.058;7.810;2022-11-20T15:15:01;11.10;87.10
1700;DHT22;847;48.058;7.810;2022-11-20T15:17:28;11.20;87.00
1700;DHT22;847;48.058;7.810;2022-11-20T15:19:55;11.10;87.00
1700;DHT22;847;48.058;7.810;2022-11-20T15:22:22;11.00;87.20
1700;DHT22;847;48.058;7.810;2022-11-20T15:24:50;11.10;87.10
1700;DHT22;847;48.058;7.810;2022-11-20T15:27:17;11.00;87.20
1700;DHT22;847;48.058;7.810;2022-11-20T15:29:47;10.90;87.50
1700;DHT22;847;48.058;7.810;2022-11-20T15:32:14;10.90;87.90
1700;DHT22;847;48.058;7.810;2022-11-20T15:34:41;10.80;87.80
1700;DHT22;847;48.058;7.810;2022-11-20T15:37:08;10.80;87.80
1700;DHT22;847;48.058;7.810;2022-11-20T15:39:36;10.80;87.80
1700;DHT22;847;48.058;7.810;2022-11-20T15:42:04;10.80;87.80
1700;DHT22;847;48.058;7.810;2022-11-20T15:44:31;10.80;87.50
1700;DHT22;847;48.058;7.810;2022-11-20T15:46:58;10.70;88.10
1700;DHT22;847;48.058;7.810;2022-11-20T15:49:25;10.70;88.70
1700;DHT22;847;48.058;7.810;2022-11-20T15:51:59;10.70;88.30
1700;DHT22;847;48.058;7.810;2022-11-20T15:54:26;10.70;88.10
1700;DHT22;847;48.058;7.810;2022-11-20T15:56:53;10.70;88.40
1700;DHT22;847;48.058;7.810;2022-11-20T15:59:22;10.70;88.00
1700;DHT22;847;48.058;7.810;2022-11-20T16:01:49;10.70;87.90
1700;DHT22;847;48.058;7.810;2022-11-20T16:04:18;10.60;88.00
1700;DHT22;847;48.058;7.810;2022-11-20T16:09:33;10.70;88.00
1700;DHT22;847;48.058;7.810;2022-11-20T16:12:00;10.60;88.20
1700;DHT22;847;48.058;7.810;2022-11-20T16:14:29;10.60;88.10
1700;DHT22;847;48.058;7.810;2022-11-20T16:17:13;10.60;88.40
1700;DHT22;847;48.058;7.810;2022-11-20T16:19:40;10.50;88.70
1700;DHT22;847;48.058;7.810;2022-11-20T16:22:09;10.40;88.80
1700;DHT22;847;48.058;7.810;2022-11-20T16:24:37;10.40;88.90
1700;DHT22;847;48.058;7.810;2022-11-20T16:27:03;10.40;88.70
1700;DHT22;847;48.058;7.810;2022-11-20T16:29:35;10.40;89.00
1700;DHT22;847;48.058;7.810;2022-11-20T16:32:02;10.40;88.60
1700;DHT22;847;48.058;7.810;2022-11-20T16:34:29;10.40;88.70
1700;DHT22;847;48.058;7.810;2022-11-20T16:36:56;10.40;88.80
1700;DHT22;847;48.058;7.810;2022-11-20T16:39:25;10.40;88.60
1700;DHT22;847;48.058;7.810;2022-11-20T16:41:59;10.40;88.50
1700;DHT22;847;48.058;7.810;2022-11-20T16:44:49;10.30;88.90
1700;DHT22;847;48.058;7.810;2022-11-20T16:47:22;10.30;88.80
1700;DHT22;847;48.058;7.810;2022-11-20T16:50:07;10.30;89.00
1700;DHT22;847;48.058;7.810;2022-11-20T16:52:40;10.30;88.80
1700;DHT22;847;48.058;7.810;2022-11-20T16:55:11;10.30;88.90
1700;DHT22;847;48.058;7.810;2022-11-20T16:57:42;10.30;88.80
1700;DHT22;847;48.058;7.810;2022-11-20T17:00:20;10.30;88.70
1700;DHT22;847;48.058;7.810;2022-11-20T17:02:52;10.20;89.20
1700;DHT22;847;48.058;7.810;2022-11-20T17:05:35;10.20;89.20
1700;DHT22;847;48.058;7.810;2022-11-20T17:08:08;10.20;88.90
1700;DHT22;847;48.058;7.810;2022-11-20T17:10:45;10.20;89.10